createdAt,value
2018-12-18T00:00:20.759Z,1.10
2018-12-18T00:02:51.220Z,0.90
2018-12-18T00:05:25.484Z,1.00
2018-12-18T00:07:53.985Z,0.97
2018-12-18T00:10:24.340Z,1.00
2018-12-18T00:12:52.631Z,0.70
2018-12-18T00:15:20.960Z,1.10
2018-12-18T00:17:49.337Z,1.03
2018-12-18T00:20:17.643Z,1.10
2018-12-18T00:22:45.972Z,1.00
2018-12-18T00:25:14.432Z,1.03
2018-12-18T00:27:42.832Z,0.70
2018-12-18T00:30:11.234Z,0.87
2018-12-18T00:32:39.667Z,0.90
2018-12-18T00:35:07.971Z,1.00
2018-12-18T00:37:36.295Z,0.73
2018-12-18T00:40:05.666Z,0.60
2018-12-18T00:42:34.031Z,0.80
2018-12-18T00:45:02.370Z,0.93
2018-12-18T00:47:30.657Z,0.80
2018-12-18T00:49:59.036Z,1.00
2018-12-18T00:52:27.436Z,0.80
2018-12-18T00:54:55.849Z,1.00
2018-12-18T00:57:24.326Z,0.93
2018-12-18T00:59:52.843Z,0.87
2018-12-18T01:02:21.199Z,0.87
2018-12-18T01:04:49.510Z,1.20
2018-12-18T01:07:18.619Z,0.70
2018-12-18T01:09:46.939Z,1.10
2018-12-18T01:12:15.258Z,1.03
2018-12-18T01:14:43.727Z,1.10
2018-12-18T01:17:12.022Z,1.20
2018-12-18T01:19:40.336Z,0.90
2018-12-18T01:22:08.631Z,1.93
2018-12-18T01:24:37.049Z,1.60
2018-12-18T01:27:05.376Z,1.20
2018-12-18T01:29:33.802Z,1.17
2018-12-18T01:32:02.092Z,1.30
2018-12-18T01:34:30.397Z,1.47
2018-12-18T01:36:58.715Z,1.20
2018-12-18T01:39:27.041Z,1.37
2018-12-18T01:41:55.731Z,1.30
2018-12-18T01:44:24.144Z,1.77
2018-12-18T01:46:52.488Z,1.50
2018-12-18T01:49:20.837Z,1.33
2018-12-18T01:51:49.134Z,1.07
2018-12-18T01:54:17.455Z,1.47
2018-12-18T01:56:45.737Z,1.30
2018-12-18T01:59:14.052Z,1.43
2018-12-18T02:01:42.393Z,1.20
2018-12-18T02:04:10.745Z,1.33
2018-12-18T02:06:39.143Z,1.57
2018-12-18T02:09:08.104Z,1.40
2018-12-18T02:11:36.433Z,1.20
2018-12-18T02:14:04.832Z,1.40
2018-12-18T02:16:33.175Z,1.67
2018-12-18T02:19:01.522Z,1.40
2018-12-18T02:21:29.807Z,1.67
2018-12-18T02:23:58.370Z,1.37
2018-12-18T02:26:26.998Z,1.90
2018-12-18T02:28:55.388Z,1.60
2018-12-18T02:31:23.764Z,1.30
2018-12-18T02:33:52.068Z,1.70
2018-12-18T02:36:20.440Z,1.30
2018-12-18T02:38:48.748Z,1.40
2018-12-18T02:41:17.047Z,1.33
2018-12-18T02:43:45.331Z,1.37
2018-12-18T02:46:13.614Z,1.00
2018-12-18T02:48:41.884Z,1.17
2018-12-18T02:51:10.196Z,1.37
2018-12-18T02:53:38.491Z,0.93
2018-12-18T02:56:07.189Z,1.57
2018-12-18T02:58:35.557Z,1.23
2018-12-18T03:01:03.913Z,1.50
2018-12-18T03:03:32.204Z,1.47
2018-12-18T03:06:00.567Z,1.47
2018-12-18T03:08:29.359Z,1.10
2018-12-18T03:10:57.706Z,1.07
2018-12-18T03:13:26.045Z,1.13
2018-12-18T03:15:54.372Z,1.67
2018-12-18T03:18:22.681Z,1.27
2018-12-18T03:20:51.809Z,1.30
2018-12-18T03:23:20.255Z,1.37
2018-12-18T03:25:48.564Z,1.07
2018-12-18T03:28:17.376Z,1.00
2018-12-18T03:30:45.830Z,1.20
2018-12-18T03:33:14.284Z,1.57
2018-12-18T03:35:42.625Z,1.53
2018-12-18T03:38:10.911Z,1.90
2018-12-18T03:40:39.225Z,1.10
2018-12-18T03:43:07.547Z,1.35
2018-12-18T03:45:35.919Z,1.43
2018-12-18T03:48:04.710Z,1.75
2018-12-18T03:50:33.251Z,1.30
2018-12-18T03:53:01.572Z,1.70
2018-12-18T03:55:30.675Z,1.30
2018-12-18T03:57:59.207Z,1.37
2018-12-18T04:00:27.624Z,1.60
2018-12-18T04:02:56.373Z,1.55
2018-12-18T04:05:24.777Z,1.75
2018-12-18T04:07:53.064Z,1.75
2018-12-18T04:12:56.002Z,1.50
2018-12-18T04:15:24.448Z,1.40
2018-12-18T04:17:52.828Z,1.53
2018-12-18T04:20:21.168Z,1.40
2018-12-18T04:22:49.804Z,1.57
2018-12-18T04:25:18.415Z,1.57
2018-12-18T04:27:47.363Z,1.30
2018-12-18T04:30:15.852Z,1.52
2018-12-18T04:32:45.208Z,1.70
2018-12-18T04:35:14.032Z,1.40
2018-12-18T04:37:42.361Z,1.63
2018-12-18T04:40:10.664Z,1.37
2018-12-18T04:42:39.057Z,1.42
2018-12-18T04:45:07.792Z,1.75
2018-12-18T04:47:36.312Z,1.50
2018-12-18T04:50:05.019Z,2.00
2018-12-18T04:52:33.502Z,1.80
2018-12-18T04:55:01.951Z,1.80
2018-12-18T04:57:30.505Z,1.90
2018-12-18T04:59:58.973Z,1.65
2018-12-18T05:02:27.389Z,1.50
2018-12-18T05:04:55.754Z,1.50
2018-12-18T05:07:24.161Z,1.80
2018-12-18T05:09:52.570Z,1.37
2018-12-18T05:12:20.996Z,1.33
2018-12-18T05:14:49.435Z,1.50
2018-12-18T05:17:17.852Z,1.20
2018-12-18T05:19:46.164Z,1.43
2018-12-18T05:22:14.596Z,1.20
2018-12-18T05:24:42.908Z,1.10
2018-12-18T05:27:11.323Z,1.30
2018-12-18T05:29:40.262Z,2.07
2018-12-18T05:32:08.563Z,1.20
2018-12-18T05:34:36.907Z,1.63
2018-12-18T05:37:05.364Z,1.20
2018-12-18T05:39:33.915Z,1.60
2018-12-18T05:42:02.230Z,1.80
2018-12-18T05:44:31.575Z,1.70
2018-12-18T05:47:00.284Z,1.70
2018-12-18T05:49:28.731Z,1.40
2018-12-18T05:51:57.072Z,1.60
2018-12-18T05:54:25.508Z,1.57
2018-12-18T05:56:54.559Z,1.47
2018-12-18T05:59:22.960Z,1.60
2018-12-18T06:01:51.301Z,1.20
2018-12-18T06:04:19.608Z,1.37
2018-12-18T06:06:48.040Z,1.53
2018-12-18T06:09:16.383Z,1.37
2018-12-18T06:11:44.721Z,1.40
2018-12-18T06:14:13.138Z,1.43
2018-12-18T06:16:41.584Z,1.40
2018-12-18T06:19:09.869Z,1.33
2018-12-18T06:21:38.274Z,1.70
2018-12-18T06:24:06.740Z,0.70
2018-12-18T06:26:35.114Z,1.03
2018-12-18T06:29:03.568Z,0.87
2018-12-18T06:31:32.088Z,0.83
2018-12-18T06:34:00.442Z,0.80
2018-12-18T06:36:28.828Z,0.90
2018-12-18T06:38:57.180Z,1.00
2018-12-18T06:41:25.623Z,0.83
2018-12-18T06:43:53.958Z,0.87
2018-12-18T06:46:22.295Z,0.90
2018-12-18T06:48:50.604Z,1.17
2018-12-18T06:51:19.098Z,1.40
2018-12-18T06:53:47.458Z,1.43
2018-12-18T06:56:15.857Z,1.30
2018-12-18T06:58:44.217Z,0.73
2018-12-18T07:01:12.720Z,1.03
2018-12-18T07:03:41.090Z,1.10
2018-12-18T07:06:09.367Z,1.27
2018-12-18T07:08:37.680Z,1.00
2018-12-18T07:11:06.166Z,0.90
2018-12-18T07:13:34.460Z,1.27
2018-12-18T07:16:03.062Z,1.13
2018-12-18T07:18:31.382Z,1.10
2018-12-18T07:20:59.789Z,1.07
2018-12-18T07:23:28.140Z,1.10
2018-12-18T07:25:56.479Z,0.93
2018-12-18T07:28:25.282Z,1.17
2018-12-18T07:30:53.693Z,1.40
2018-12-18T07:33:22.017Z,1.03
2018-12-18T07:35:50.320Z,0.97
2018-12-18T07:38:18.644Z,1.17
2018-12-18T07:40:46.942Z,1.47
2018-12-18T07:43:15.449Z,0.90
2018-12-18T07:45:43.723Z,1.33
2018-12-18T07:48:12.018Z,0.90
2018-12-18T07:50:40.272Z,1.43
2018-12-18T07:53:08.583Z,1.00
2018-12-18T07:55:37.278Z,1.23
2018-12-18T07:58:05.723Z,0.83
2018-12-18T08:00:34.000Z,1.10
2018-12-18T08:03:02.364Z,1.47
2018-12-18T08:05:30.731Z,0.97
2018-12-18T08:07:59.087Z,1.07
2018-12-18T08:10:27.351Z,0.80
2018-12-18T08:12:55.648Z,1.17
2018-12-18T08:15:23.950Z,0.90
2018-12-18T08:17:52.569Z,0.73
2018-12-18T08:20:21.094Z,1.00
2018-12-18T08:22:49.402Z,0.83
2018-12-18T08:25:17.665Z,0.90
2018-12-18T08:27:45.935Z,1.03
2018-12-18T08:30:14.311Z,0.90
2018-12-18T08:32:42.590Z,0.97
2018-12-18T08:35:10.893Z,0.83
2018-12-18T08:37:39.329Z,1.00
2018-12-18T08:40:08.106Z,0.93
2018-12-18T08:42:36.407Z,1.07
2018-12-18T08:45:05.743Z,0.90
2018-12-18T08:47:34.044Z,0.80
2018-12-18T08:50:02.410Z,0.73
2018-12-18T08:52:30.696Z,0.90
2018-12-18T08:54:59.060Z,0.77
2018-12-18T08:57:27.420Z,0.93
2018-12-18T08:59:55.742Z,1.37
2018-12-18T09:02:24.075Z,0.97
2018-12-18T09:04:52.387Z,0.93
2018-12-18T09:07:20.743Z,0.80
2018-12-18T09:09:49.024Z,0.73
2018-12-18T09:12:17.813Z,0.97
2018-12-18T09:14:51.836Z,1.13
2018-12-18T09:17:50.767Z,0.83
2018-12-18T09:20:19.059Z,0.80
2018-12-18T09:22:47.360Z,1.07
2018-12-18T09:25:15.628Z,1.20
2018-12-18T09:27:44.073Z,1.00
2018-12-18T09:30:12.369Z,0.90
2018-12-18T09:32:40.634Z,0.83
2018-12-18T09:35:08.917Z,0.73
2018-12-18T09:37:37.205Z,1.13
2018-12-18T09:40:07.437Z,0.53
2018-12-18T09:42:41.008Z,0.80
2018-12-18T09:45:09.581Z,1.00
2018-12-18T09:47:37.862Z,0.90
2018-12-18T09:50:07.267Z,0.80
2018-12-18T09:52:35.696Z,0.70
2018-12-18T09:55:04.562Z,0.87
2018-12-18T09:57:38.352Z,0.83
2018-12-18T10:00:08.225Z,0.90
2018-12-18T10:02:36.670Z,0.80
2018-12-18T10:05:05.803Z,1.00
2018-12-18T10:07:34.075Z,0.90
2018-12-18T10:10:02.394Z,0.67
2018-12-18T10:12:36.145Z,0.77
2018-12-18T10:15:06.028Z,0.90
2018-12-18T10:17:34.319Z,1.03
2018-12-18T10:20:02.780Z,1.00
2018-12-18T10:22:31.435Z,0.80
2018-12-18T10:24:59.739Z,0.60
2018-12-18T10:27:28.004Z,0.90
2018-12-18T10:29:56.326Z,0.60
2018-12-18T10:32:24.659Z,0.87
2018-12-18T10:34:52.996Z,1.00
2018-12-18T10:37:21.308Z,0.63
2018-12-18T10:39:49.701Z,0.70
2018-12-18T10:42:18.291Z,0.83
2018-12-18T10:44:46.584Z,0.90
2018-12-18T10:47:15.244Z,0.90
2018-12-18T10:49:43.575Z,0.70
2018-12-18T10:52:11.835Z,0.90
2018-12-18T10:54:40.130Z,0.60
2018-12-18T10:57:08.553Z,0.90
2018-12-18T10:59:36.991Z,0.67
2018-12-18T11:02:05.401Z,0.60
2018-12-18T11:04:33.677Z,0.70
2018-12-18T11:07:01.968Z,0.73
2018-12-18T11:09:30.280Z,1.23
2018-12-18T11:11:58.563Z,1.10
2018-12-18T11:14:26.832Z,0.70
2018-12-18T11:16:55.147Z,0.77
2018-12-18T11:19:23.415Z,1.10
2018-12-18T11:21:51.709Z,0.67
2018-12-18T11:24:19.990Z,0.80
2018-12-18T11:26:48.346Z,0.60
2018-12-18T11:29:16.852Z,0.50
2018-12-18T11:31:45.358Z,0.60
2018-12-18T11:34:13.783Z,0.63
2018-12-18T11:36:42.400Z,0.83
2018-12-18T11:39:10.764Z,0.83
2018-12-18T11:41:40.140Z,1.00
2018-12-18T11:44:08.426Z,0.50
2018-12-18T11:46:36.912Z,0.80
2018-12-18T11:49:05.434Z,0.77
2018-12-18T11:51:34.017Z,0.73
2018-12-18T11:54:02.348Z,0.70
2018-12-18T11:56:30.661Z,0.50
2018-12-18T11:58:59.093Z,0.60
2018-12-18T12:01:27.510Z,0.80
2018-12-18T12:03:56.053Z,0.63
2018-12-18T12:08:59.004Z,0.70
2018-12-18T12:11:27.288Z,0.60
2018-12-18T12:13:55.604Z,0.50
2018-12-18T12:16:24.134Z,0.70
2018-12-18T12:18:52.464Z,0.77
2018-12-18T12:21:20.738Z,0.57
2018-12-18T12:23:48.998Z,0.80
2018-12-18T12:26:22.765Z,0.63
2018-12-18T12:28:51.035Z,0.80
2018-12-18T12:31:19.318Z,0.60
2018-12-18T12:33:47.614Z,0.77
2018-12-18T12:36:16.012Z,0.70
2018-12-18T12:38:44.331Z,0.70
2018-12-18T12:41:12.831Z,0.77
2018-12-18T12:43:41.455Z,0.70
2018-12-18T12:46:09.837Z,0.70
2018-12-18T12:48:43.760Z,0.60
2018-12-18T12:51:12.145Z,0.70
2018-12-18T12:53:40.432Z,0.80
2018-12-18T12:56:08.738Z,0.70
2018-12-18T12:58:37.065Z,0.97
2018-12-18T13:01:05.448Z,0.50
2018-12-18T13:03:33.774Z,0.63
2018-12-18T13:06:03.040Z,0.57
2018-12-18T13:08:31.404Z,0.50
2018-12-18T13:10:59.677Z,0.80
2018-12-18T13:13:28.006Z,0.70
2018-12-18T13:15:56.258Z,0.47
2018-12-18T13:18:24.660Z,0.70
2018-12-18T13:20:53.056Z,0.80
2018-12-18T13:23:21.330Z,0.40
2018-12-18T13:25:49.652Z,0.47
2018-12-18T13:28:18.101Z,1.00
2018-12-18T13:30:46.657Z,0.67
2018-12-18T13:33:15.007Z,0.60
2018-12-18T13:35:43.407Z,0.63
2018-12-18T13:38:12.728Z,1.10
2018-12-18T13:40:41.749Z,0.50
2018-12-18T13:43:10.461Z,0.97
2018-12-18T13:45:38.783Z,0.83
2018-12-18T13:48:07.422Z,0.60
2018-12-18T13:50:35.770Z,0.67
2018-12-18T13:53:04.313Z,1.20
2018-12-18T13:55:36.650Z,0.83
2018-12-18T13:58:02.979Z,0.73
2018-12-18T14:00:31.310Z,0.80
2018-12-18T14:02:59.600Z,0.57
2018-12-18T14:05:27.887Z,0.50
2018-12-18T14:07:56.214Z,0.90
2018-12-18T14:10:25.002Z,0.80
2018-12-18T14:12:57.664Z,0.70
2018-12-18T14:15:26.102Z,0.70
2018-12-18T14:17:54.440Z,0.63
2018-12-18T14:20:22.842Z,0.60
2018-12-18T14:22:51.167Z,0.70
2018-12-18T14:25:19.444Z,0.63
2018-12-18T14:27:47.728Z,0.70
2018-12-18T14:30:16.335Z,0.53
2018-12-18T14:32:44.667Z,0.87
2018-12-18T14:35:13.130Z,0.70
2018-12-18T14:37:41.430Z,0.43
2018-12-18T14:40:09.836Z,0.73
2018-12-18T14:42:38.131Z,0.80
2018-12-18T14:45:06.936Z,0.57
2018-12-18T14:47:35.233Z,0.80
2018-12-18T14:50:04.488Z,0.93
2018-12-18T14:52:32.783Z,1.00
2018-12-18T14:55:01.042Z,0.60
2018-12-18T14:57:29.432Z,0.87
2018-12-18T14:59:57.700Z,0.80
2018-12-18T15:02:25.980Z,0.80
2018-12-18T15:04:54.240Z,0.90
2018-12-18T15:07:22.730Z,0.90
2018-12-18T15:09:51.129Z,0.97
2018-12-18T15:12:19.431Z,0.83
2018-12-18T15:14:47.827Z,0.60
2018-12-18T15:17:16.170Z,0.73
2018-12-18T15:19:44.754Z,0.80
2018-12-18T15:22:13.021Z,0.80
2018-12-18T15:24:41.307Z,1.07
2018-12-18T15:27:09.569Z,1.03
2018-12-18T15:29:37.934Z,1.17
2018-12-18T15:32:06.254Z,0.63
2018-12-18T15:34:34.571Z,0.60
2018-12-18T15:37:09.367Z,0.87
2018-12-18T15:39:33.153Z,0.87
2018-12-18T15:42:02.042Z,1.00
2018-12-18T15:44:30.385Z,0.80
2018-12-18T15:46:58.720Z,0.83
2018-12-18T15:49:27.010Z,0.80
2018-12-18T15:51:55.319Z,0.70
2018-12-18T15:54:23.668Z,1.00
2018-12-18T15:56:52.026Z,0.67
2018-12-18T15:59:20.504Z,0.70
2018-12-18T16:01:48.900Z,0.77
2018-12-18T16:04:17.209Z,0.97
2018-12-18T16:06:45.681Z,0.90
2018-12-18T16:09:14.009Z,0.93
2018-12-18T16:11:42.389Z,1.07
2018-12-18T16:14:10.683Z,0.50
2018-12-18T16:16:39.194Z,1.00
2018-12-18T16:19:07.689Z,1.00
2018-12-18T16:21:36.507Z,0.80
2018-12-18T16:24:04.910Z,1.03
2018-12-18T16:26:33.205Z,1.03
2018-12-18T16:29:01.884Z,0.87
2018-12-18T16:31:30.265Z,0.70
2018-12-18T16:33:58.546Z,0.77
2018-12-18T16:36:26.836Z,0.60
2018-12-18T16:38:55.405Z,1.03
2018-12-18T16:41:23.702Z,0.97
2018-12-18T16:43:51.995Z,0.70
2018-12-18T16:46:20.785Z,1.03
2018-12-18T16:48:49.116Z,0.87
2018-12-18T16:51:17.707Z,0.83
2018-12-18T16:53:46.806Z,0.77
2018-12-18T16:56:15.148Z,1.13
2018-12-18T16:58:43.472Z,0.87
2018-12-18T17:01:11.787Z,1.10
2018-12-18T17:03:40.088Z,0.83
2018-12-18T17:06:11.052Z,0.80
2018-12-18T17:08:39.481Z,0.90
2018-12-18T17:11:08.129Z,0.80
2018-12-18T17:13:36.465Z,0.80
2018-12-18T17:16:04.782Z,1.00
2018-12-18T17:18:33.095Z,1.30
2018-12-18T17:21:01.417Z,0.93
2018-12-18T17:23:29.716Z,1.30
2018-12-18T17:25:58.181Z,0.87
2018-12-18T17:28:27.269Z,0.83
2018-12-18T17:30:55.699Z,1.07
2018-12-18T17:33:24.003Z,1.20
2018-12-18T17:35:52.310Z,0.70
2018-12-18T17:38:22.083Z,0.97
2018-12-18T17:40:50.537Z,0.73
2018-12-18T17:43:20.083Z,0.97
2018-12-18T17:45:48.386Z,0.83
2018-12-18T17:48:16.676Z,1.00
2018-12-18T17:50:44.991Z,1.20
2018-12-18T17:53:13.350Z,1.30
2018-12-18T17:55:42.976Z,1.20
2018-12-18T17:58:11.467Z,1.13
2018-12-18T18:00:41.040Z,0.80
2018-12-18T18:03:09.451Z,1.10
2018-12-18T18:05:37.740Z,1.37
2018-12-18T18:08:06.022Z,1.20
2018-12-18T18:10:35.256Z,1.00
2018-12-18T18:13:03.727Z,1.20
2018-12-18T18:15:32.587Z,1.03
2018-12-18T18:18:01.956Z,0.93
2018-12-18T18:20:32.245Z,1.20
2018-12-18T18:23:01.815Z,1.10
2018-12-18T18:25:30.094Z,1.33
2018-12-18T18:27:58.389Z,0.90
2018-12-18T18:30:26.711Z,1.10
2018-12-18T18:32:55.020Z,1.00
2018-12-18T18:35:23.614Z,1.05
2018-12-18T18:37:51.905Z,0.90
2018-12-18T18:40:20.194Z,1.05
2018-12-18T18:42:48.560Z,1.00
2018-12-18T18:45:16.841Z,1.13
2018-12-18T18:47:45.108Z,1.37
2018-12-18T18:50:13.596Z,0.90
2018-12-18T18:52:41.883Z,0.90
2018-12-18T18:55:10.131Z,1.10
2018-12-18T18:57:38.423Z,1.10
2018-12-18T19:00:08.110Z,0.98
2018-12-18T19:02:36.423Z,1.10
2018-12-18T19:05:04.892Z,1.30
2018-12-18T19:07:33.159Z,1.00
2018-12-18T19:10:01.464Z,0.93
2018-12-18T19:12:29.764Z,1.02
2018-12-18T19:14:58.064Z,1.07
2018-12-18T19:17:26.557Z,1.02
2018-12-18T19:19:54.838Z,1.10
2018-12-18T19:22:23.121Z,1.10
2018-12-18T19:24:51.486Z,0.98
2018-12-18T19:27:19.842Z,1.32
2018-12-18T19:29:49.003Z,0.98
2018-12-18T19:32:17.427Z,1.10
2018-12-18T19:34:45.728Z,1.10
2018-12-18T19:37:14.064Z,1.37
2018-12-18T19:39:42.488Z,0.90
2018-12-18T19:42:10.979Z,1.05
2018-12-18T19:44:39.241Z,0.60
2018-12-18T19:47:07.542Z,1.10
2018-12-18T19:49:35.808Z,1.27
2018-12-18T19:52:04.213Z,0.93
2018-12-18T19:54:32.481Z,1.17
2018-12-18T19:57:00.793Z,1.13
2018-12-18T19:59:29.096Z,0.77
2018-12-18T20:01:57.432Z,0.70
2018-12-18T20:04:25.719Z,1.00
2018-12-18T20:06:54.045Z,0.80
2018-12-18T20:09:22.313Z,0.90
2018-12-18T20:11:50.603Z,1.00
2018-12-18T20:14:18.875Z,1.13
2018-12-18T20:16:47.170Z,1.20
2018-12-18T20:19:15.452Z,1.17
2018-12-18T20:21:43.755Z,0.95
2018-12-18T20:24:12.158Z,1.13
2018-12-18T20:26:40.440Z,0.90
2018-12-18T20:29:08.820Z,1.15
2018-12-18T20:31:37.115Z,0.90
2018-12-18T20:34:05.420Z,0.80
2018-12-18T20:36:33.747Z,1.13
2018-12-18T20:39:02.043Z,1.00
2018-12-18T20:41:30.344Z,0.90
2018-12-18T20:43:58.624Z,0.80
2018-12-18T20:46:26.993Z,0.90
2018-12-18T20:48:55.267Z,0.70
2018-12-18T20:51:23.661Z,1.00
2018-12-18T20:53:51.924Z,1.10
2018-12-18T20:56:20.234Z,1.23
2018-12-18T20:58:48.525Z,0.90
2018-12-18T21:01:16.811Z,0.70
2018-12-18T21:03:45.086Z,1.00
2018-12-18T21:06:13.655Z,0.67
2018-12-18T21:08:42.028Z,0.90
2018-12-18T21:11:10.408Z,1.23
2018-12-18T21:13:39.600Z,1.17
2018-12-18T21:16:08.201Z,1.00
2018-12-18T21:18:36.618Z,1.17
2018-12-18T21:21:05.008Z,0.82
2018-12-18T21:23:33.712Z,0.83
2018-12-18T21:26:02.080Z,1.07
2018-12-18T21:28:30.571Z,1.17
2018-12-18T21:30:59.145Z,0.90
2018-12-18T21:33:27.512Z,1.17
2018-12-18T21:35:55.888Z,1.17
2018-12-18T21:38:30.048Z,0.90
2018-12-18T21:40:54.884Z,1.10
2018-12-18T21:43:23.416Z,1.30
2018-12-18T21:45:51.858Z,0.83
2018-12-18T21:48:20.249Z,0.95
2018-12-18T21:50:48.628Z,0.90
2018-12-18T21:53:17.028Z,1.00
2018-12-18T21:55:45.636Z,0.90
2018-12-18T21:58:14.063Z,0.80
2018-12-18T22:00:42.528Z,0.97
2018-12-18T22:03:10.959Z,1.12
2018-12-18T22:05:39.340Z,1.30
2018-12-18T22:08:09.570Z,1.02
2018-12-18T22:10:37.976Z,1.40
2018-12-18T22:13:06.846Z,1.10
2018-12-18T22:15:35.271Z,1.10
2018-12-18T22:18:03.792Z,0.90
2018-12-18T22:20:32.286Z,0.93
2018-12-18T22:23:01.665Z,1.40
2018-12-18T22:25:30.232Z,1.20
2018-12-18T22:27:58.649Z,1.03
2018-12-18T22:30:27.029Z,1.22
2018-12-18T22:32:55.403Z,0.90
2018-12-18T22:35:23.895Z,1.43
2018-12-18T22:37:52.417Z,0.98
2018-12-18T22:40:20.776Z,1.30
2018-12-18T22:42:49.203Z,0.65
2018-12-18T22:45:18.189Z,1.40
2018-12-18T22:47:46.756Z,1.40
2018-12-18T22:50:15.117Z,1.10
2018-12-18T22:52:43.392Z,1.23
2018-12-18T22:55:11.725Z,1.70
2018-12-18T22:57:40.316Z,0.77
2018-12-18T23:00:12.130Z,0.87
2018-12-18T23:02:40.545Z,0.80
2018-12-18T23:05:09.992Z,0.82
2018-12-18T23:07:43.694Z,1.10
2018-12-18T23:10:15.872Z,1.05
2018-12-18T23:12:44.316Z,0.90
2018-12-18T23:15:12.752Z,1.10
2018-12-18T23:17:41.248Z,1.23
2018-12-18T23:20:09.669Z,1.10
2018-12-18T23:22:38.202Z,1.10
2018-12-18T23:25:06.550Z,1.40
2018-12-18T23:27:34.868Z,1.30
2018-12-18T23:30:03.868Z,1.20
2018-12-18T23:32:32.202Z,0.90
2018-12-18T23:35:00.539Z,1.30
2018-12-18T23:37:28.932Z,0.97
2018-12-18T23:39:57.241Z,1.00
2018-12-18T23:42:25.645Z,0.95
2018-12-18T23:44:53.979Z,0.90
2018-12-18T23:47:22.280Z,0.87
2018-12-18T23:49:50.552Z,1.32
2018-12-18T23:52:18.956Z,1.30
2018-12-18T23:54:47.292Z,1.07
2018-12-18T23:57:15.888Z,1.20
2018-12-18T23:59:44.204Z,1.20
